Aérodrome :
LOGIN :

S'inscrire | Disclaimer

   EN    FR    IT 

 










Légende :    VFR   VFR Marginal   IFR   IFR Intensif   IFR Très Intensif
Visi : 
Plafond : 
>= 8 km
>= 3000ft
5 à 8 km
1000 à 3000 ft
1500m à 5 km
500 à 1000 ft
800 à 1500m
200 à 500 ft
< 800m
< 200 ft
Symboles :   Orages  Brouillard  Fortes neiges  Fortes précipitations  Vent > 20 kt
SIGMETs :   Divers  Orages  Givrage  Turbulence  Onde Orograph.  Cendres Volcan.







- Altitude de l'aérodrome : 74 ft
- Code IATA : LRH
- Voir les cartes d'approche


LFBH - La Rochelle Ile de Ré

DERNIER METAR :
  • 231430Z AUTO 24009KT 9999 SCT023 BKN035 BKN086 17/12 Q1025 NOSIG

METARs EXPIRÉS :
  • 231400Z AUTO 24009KT 9999 BKN024 BKN058 BKN074 17/12 Q1025 NOSIG
  • 231330Z AUTO 24010KT 9999 SCT026 BKN031 BKN039 17/12 Q1026 NOSIG
  • 231300Z AUTO 24011KT 210V270 9999 BKN026 BKN062 OVC074 18/12 Q1026 NOSIG
  • 231230Z AUTO 24010KT 9999 FEW028 OVC078 18/11 Q1026 NOSIG
  • 231200Z AUTO 25009KT 9999 FEW028 SCT047 OVC066 18/11 Q1026 NOSIG

TAF TAF LFBH
Valide du 23 à 12h jusqu'au 24 à 12h UTC


231100Z 2312/2412 26008KT 9999 BKN040
BECMG 2322/2324 CAVOK
BECMG 2404/2406 13005KT
PROB30
TEMPO 2405/2407 0800 MIFG
ATIS : +33 5 46 00 13 92
Pas de NOTAMs connus pour ce terrain.



MET'MAP, la Météo Aéronautique d'un coup d'oeil ! - Copyright ORBIFLY Décembre 2007 - Disclaimer

ORBIFLY MET'MAP TEAM :

Programmation & Développement : Alexandra Zaïnal
Conception & Développement : Baudouin d'Aumeries
Co-Programmation & Développement : Marc-Olivier Méhu
Soutien technique & logistique : Manuel Goepfert

Contact : metmap@orbifly.com




SOURCES & CREDITS :

   NOAA